sensor_id;sensor_type;location;lat;lon;timestamp;temperature;humidity
55648;DHT22;45266;48.756;9.246;2022-09-03T00:00:32;13.70;99.90
55648;DHT22;45266;48.756;9.246;2022-09-03T00:01:57;13.70;99.90
55648;DHT22;45266;48.756;9.246;2022-09-03T00:03:07;13.70;99.90
55648;DHT22;45266;48.756;9.246;2022-09-03T00:04:21;13.70;99.90
55648;DHT22;45266;48.756;9.246;2022-09-03T00:06:00;13.70;99.90
55648;DHT22;45266;48.756;9.246;2022-09-03T00:07:10;13.70;99.90
55648;DHT22;45266;48.756;9.246;2022-09-03T00:08:29;13.70;99.90
55648;DHT22;45266;48.756;9.246;2022-09-03T00:09:40;13.80;99.90
55648;DHT22;45266;48.756;9.246;2022-09-03T00:10:56;13.80;99.90
55648;DHT22;45266;48.756;9.246;2022-09-03T00:12:21;13.80;99.90
55648;DHT22;45266;48.756;9.246;2022-09-03T00:13:30;13.80;99.90
55648;DHT22;45266;48.756;9.246;2022-09-03T00:14:51;13.80;99.90
55648;DHT22;45266;48.756;9.246;2022-09-03T00:15:55;13.90;99.90
55648;DHT22;45266;48.756;9.246;2022-09-03T00:17:12;13.90;99.90
55648;DHT22;45266;48.756;9.246;2022-09-03T00:18:17;13.90;99.90
55648;DHT22;45266;48.756;9.246;2022-09-03T00:19:32;13.90;99.90
55648;DHT22;45266;48.756;9.246;2022-09-03T00:22:04;13.90;99.90
55648;DHT22;45266;48.756;9.246;2022-09-03T00:23:18;13.90;99.90
55648;DHT22;45266;48.756;9.246;2022-09-03T00:24:27;14.00;99.90
55648;DHT22;45266;48.756;9.246;2022-09-03T00:25:38;14.00;99.90
55648;DHT22;45266;48.756;9.246;2022-09-03T00:26:44;14.00;99.90
55648;DHT22;45266;48.756;9.246;2022-09-03T00:27:52;14.00;99.90
55648;DHT22;45266;48.756;9.246;2022-09-03T00:30:03;14.00;99.90
55648;DHT22;45266;48.756;9.246;2022-09-03T00:32:22;14.10;99.90
55648;DHT22;45266;48.756;9.246;2022-09-03T00:33:29;14.10;99.90
55648;DHT22;45266;48.756;9.246;2022-09-03T00:34:35;14.10;99.90
55648;DHT22;45266;48.756;9.246;2022-09-03T00:36:01;14.10;99.90
55648;DHT22;45266;48.756;9.246;2022-09-03T00:37:03;14.10;99.90
55648;DHT22;45266;48.756;9.246;2022-09-03T00:38:07;14.10;99.90
55648;DHT22;45266;48.756;9.246;2022-09-03T00:39:15;14.10;99.90
55648;DHT22;45266;48.756;9.246;2022-09-03T00:40:31;14.20;99.90
55648;DHT22;45266;48.756;9.246;2022-09-03T00:41:41;14.10;99.90
55648;DHT22;45266;48.756;9.246;2022-09-03T00:47:37;14.20;99.90
55648;DHT22;45266;48.756;9.246;2022-09-03T00:54:06;14.30;99.90
55648;DHT22;45266;48.756;9.246;2022-09-03T01:00:03;14.30;99.90
55648;DHT22;45266;48.756;9.246;2022-09-03T01:03:08;14.30;99.90
55648;DHT22;45266;48.756;9.246;2022-09-03T01:09:50;14.40;99.90
55648;DHT22;45266;48.756;9.246;2022-09-03T01:13:35;14.40;99.90
55648;DHT22;45266;48.756;9.246;2022-09-03T01:14:57;14.50;99.90
55648;DHT22;45266;48.756;9.246;2022-09-03T01:17:04;14.50;99.90
55648;DHT22;45266;48.756;9.246;2022-09-03T01:19:28;14.50;99.90
55648;DHT22;45266;48.756;9.246;2022-09-03T01:25:43;14.50;99.90
55648;DHT22;45266;48.756;9.246;2022-09-03T01:29:36;14.50;99.90
55648;DHT22;45266;48.756;9.246;2022-09-03T01:30:43;14.50;99.90
55648;DHT22;45266;48.756;9.246;2022-09-03T01:32:33;14.50;99.90
55648;DHT22;45266;48.756;9.246;2022-09-03T01:33:43;14.60;99.90
55648;DHT22;45266;48.756;9.246;2022-09-03T01:36:37;14.60;99.90
55648;DHT22;45266;48.756;9.246;2022-09-03T01:39:13;14.60;99.90
55648;DHT22;45266;48.756;9.246;2022-09-03T01:40:30;14.60;99.90
55648;DHT22;45266;48.756;9.246;2022-09-03T01:42:08;14.60;99.90
55648;DHT22;45266;48.756;9.246;2022-09-03T01:43:37;14.60;99.90
55648;DHT22;45266;48.756;9.246;2022-09-03T01:46:15;14.60;99.90
55648;DHT22;45266;48.756;9.246;2022-09-03T01:47:27;14.60;99.90
55648;DHT22;45266;48.756;9.246;2022-09-03T01:50:13;14.60;99.90
55648;DHT22;45266;48.756;9.246;2022-09-03T01:51:19;14.60;99.90
55648;DHT22;45266;48.756;9.246;2022-09-03T01:52:39;14.60;99.90
55648;DHT22;45266;48.756;9.246;2022-09-03T01:54:07;14.60;99.90
55648;DHT22;45266;48.756;9.246;2022-09-03T01:55:31;14.60;99.90
55648;DHT22;45266;48.756;9.246;2022-09-03T01:57:13;14.60;99.90
55648;DHT22;45266;48.756;9.246;2022-09-03T02:00:13;14.60;99.90
55648;DHT22;45266;48.756;9.246;2022-09-03T02:01:21;14.60;99.90
55648;DHT22;45266;48.756;9.246;2022-09-03T02:02:26;14.60;99.90
55648;DHT22;45266;48.756;9.246;2022-09-03T02:03:40;14.60;99.90
55648;DHT22;45266;48.756;9.246;2022-09-03T02:05:59;14.70;99.90
55648;DHT22;45266;48.756;9.246;2022-09-03T02:07:02;14.70;99.90
55648;DHT22;45266;48.756;9.246;2022-09-03T02:08:07;14.70;99.90
55648;DHT22;45266;48.756;9.246;2022-09-03T02:09:12;14.70;99.90
55648;DHT22;45266;48.756;9.246;2022-09-03T02:10:19;14.70;99.90
55648;DHT22;45266;48.756;9.246;2022-09-03T02:11:22;14.70;99.90
55648;DHT22;45266;48.756;9.246;2022-09-03T02:12:25;14.70;99.90
55648;DHT22;45266;48.756;9.246;2022-09-03T02:13:46;14.70;99.90
55648;DHT22;45266;48.756;9.246;2022-09-03T02:14:50;14.70;99.90
55648;DHT22;45266;48.756;9.246;2022-09-03T02:15:54;14.70;99.90
55648;DHT22;45266;48.756;9.246;2022-09-03T02:16:59;14.70;99.90
55648;DHT22;45266;48.756;9.246;2022-09-03T02:18:04;14.70;99.90
55648;DHT22;45266;48.756;9.246;2022-09-03T02:19:10;14.70;99.90
55648;DHT22;45266;48.756;9.246;2022-09-03T02:20:18;14.70;99.90
55648;DHT22;45266;48.756;9.246;2022-09-03T02:21:24;14.70;99.90
55648;DHT22;45266;48.756;9.246;2022-09-03T02:22:27;14.70;99.90
55648;DHT22;45266;48.756;9.246;2022-09-03T02:23:29;14.70;99.90
55648;DHT22;45266;48.756;9.246;2022-09-03T02:24:31;14.70;99.90
55648;DHT22;45266;48.756;9.246;2022-09-03T02:25:39;14.70;99.90
55648;DHT22;45266;48.756;9.246;2022-09-03T02:26:42;14.70;99.90
55648;DHT22;45266;48.756;9.246;2022-09-03T02:27:44;14.70;99.90
55648;DHT22;45266;48.756;9.246;2022-09-03T02:28:47;14.70;99.90
55648;DHT22;45266;48.756;9.246;2022-09-03T02:29:49;14.70;99.90
55648;DHT22;45266;48.756;9.246;2022-09-03T02:30:51;14.70;99.90
55648;DHT22;45266;48.756;9.246;2022-09-03T02:31:53;14.70;99.90
55648;DHT22;45266;48.756;9.246;2022-09-03T02:32:55;14.70;99.90
55648;DHT22;45266;48.756;9.246;2022-09-03T02:33:57;14.70;99.90
55648;DHT22;45266;48.756;9.246;2022-09-03T02:34:59;14.70;99.90
55648;DHT22;45266;48.756;9.246;2022-09-03T02:36:04;14.70;99.90
55648;DHT22;45266;48.756;9.246;2022-09-03T02:37:16;14.70;99.90
55648;DHT22;45266;48.756;9.246;2022-09-03T02:38:23;14.70;99.90
55648;DHT22;45266;48.756;9.246;2022-09-03T02:39:28;14.70;99.90
55648;DHT22;45266;48.756;9.246;2022-09-03T02:40:30;14.70;99.90
55648;DHT22;45266;48.756;9.246;2022-09-03T02:41:33;14.70;99.90
55648;DHT22;45266;48.756;9.246;2022-09-03T02:42:35;14.70;99.90
55648;DHT22;45266;48.756;9.246;2022-09-03T02:43:56;14.70;99.90
55648;DHT22;45266;48.756;9.246;2022-09-03T02:45:09;14.70;99.90
55648;DHT22;45266;48.756;9.246;2022-09-03T02:46:21;14.70;99.90
55648;DHT22;45266;48.756;9.246;2022-09-03T02:47:27;14.70;99.90
55648;DHT22;45266;48.756;9.246;2022-09-03T02:48:32;14.70;99.90
55648;DHT22;45266;48.756;9.246;2022-09-03T02:49:34;14.60;99.90
55648;DHT22;45266;48.756;9.246;2022-09-03T02:50:42;14.60;99.90
55648;DHT22;45266;48.756;9.246;2022-09-03T02:51:44;14.60;99.90
55648;DHT22;45266;48.756;9.246;2022-09-03T02:52:46;14.60;99.90
55648;DHT22;45266;48.756;9.246;2022-09-03T02:53:48;14.50;99.90
55648;DHT22;45266;48.756;9.246;2022-09-03T02:54:51;14.50;99.90
55648;DHT22;45266;48.756;9.246;2022-09-03T02:55:57;14.50;99.90
55648;DHT22;45266;48.756;9.246;2022-09-03T02:57:00;14.50;99.90
55648;DHT22;45266;48.756;9.246;2022-09-03T02:58:02;14.40;99.90
55648;DHT22;45266;48.756;9.246;2022-09-03T02:59:08;14.40;99.90
55648;DHT22;45266;48.756;9.246;2022-09-03T03:00:10;14.40;99.90
55648;DHT22;45266;48.756;9.246;2022-09-03T03:01:12;14.40;99.90
55648;DHT22;45266;48.756;9.246;2022-09-03T03:02:24;14.40;99.90
55648;DHT22;45266;48.756;9.246;2022-09-03T03:03:27;14.30;99.90
55648;DHT22;45266;48.756;9.246;2022-09-03T03:04:29;14.30;99.90
55648;DHT22;45266;48.756;9.246;2022-09-03T03:06:11;14.30;99.90
55648;DHT22;45266;48.756;9.246;2022-09-03T03:07:06;14.20;99.90
55648;DHT22;45266;48.756;9.246;2022-09-03T03:08:08;14.30;99.90
55648;DHT22;45266;48.756;9.246;2022-09-03T03:09:10;14.20;99.90
55648;DHT22;45266;48.756;9.246;2022-09-03T03:10:12;14.20;99.90
55648;DHT22;45266;48.756;9.246;2022-09-03T03:11:15;14.20;99.90
55648;DHT22;45266;48.756;9.246;2022-09-03T03:12:18;14.10;99.90
55648;DHT22;45266;48.756;9.246;2022-09-03T03:13:21;14.10;99.90
55648;DHT22;45266;48.756;9.246;2022-09-03T03:14:23;14.10;99.90
55648;DHT22;45266;48.756;9.246;2022-09-03T03:15:25;14.10;99.90
55648;DHT22;45266;48.756;9.246;2022-09-03T03:16:27;14.10;99.90
55648;DHT22;45266;48.756;9.246;2022-09-03T03:17:28;14.10;99.90
55648;DHT22;45266;48.756;9.246;2022-09-03T03:18:32;14.10;99.90
55648;DHT22;45266;48.756;9.246;2022-09-03T03:19:35;14.10;99.90
55648;DHT22;45266;48.756;9.246;2022-09-03T03:20:37;14.10;99.90
55648;DHT22;45266;48.756;9.246;2022-09-03T03:21:39;14.10;99.90
55648;DHT22;45266;48.756;9.246;2022-09-03T03:22:41;14.10;99.90
55648;DHT22;45266;48.756;9.246;2022-09-03T03:23:43;14.10;99.90
55648;DHT22;45266;48.756;9.246;2022-09-03T03:24:45;14.00;99.90
55648;DHT22;45266;48.756;9.246;2022-09-03T03:25:47;14.00;99.90
55648;DHT22;45266;48.756;9.246;2022-09-03T03:26:49;14.00;99.90
55648;DHT22;45266;48.756;9.246;2022-09-03T03:27:53;14.00;99.90
55648;DHT22;45266;48.756;9.246;2022-09-03T03:28:59;14.00;99.90
55648;DHT22;45266;48.756;9.246;2022-09-03T03:30:01;14.00;99.90
55648;DHT22;45266;48.756;9.246;2022-09-03T03:31:07;14.00;99.90
55648;DHT22;45266;48.756;9.246;2022-09-03T03:32:09;13.90;99.90
55648;DHT22;45266;48.756;9.246;2022-09-03T03:33:11;14.00;99.90
55648;DHT22;45266;48.756;9.246;2022-09-03T03:34:13;14.00;99.90
55648;DHT22;45266;48.756;9.246;2022-09-03T03:35:15;13.90;99.90
55648;DHT22;45266;48.756;9.246;2022-09-03T03:36:17;13.90;99.90
55648;DHT22;45266;48.756;9.246;2022-09-03T03:37:19;13.90;99.90
55648;DHT22;45266;48.756;9.246;2022-09-03T03:38:21;13.90;99.90
55648;DHT22;45266;48.756;9.246;2022-09-03T03:39:23;13.80;99.90
55648;DHT22;45266;48.756;9.246;2022-09-03T03:40:25;13.80;99.90
55648;DHT22;45266;48.756;9.246;2022-09-03T03:41:32;13.80;99.90
55648;DHT22;45266;48.756;9.246;2022-09-03T03:42:34;13.80;99.90
55648;DHT22;45266;48.756;9.246;2022-09-03T03:43:36;13.80;99.90
55648;DHT22;45266;48.756;9.246;2022-09-03T03:44:38;13.80;99.90
55648;DHT22;45266;48.756;9.246;2022-09-03T03:45:39;13.80;99.90
55648;DHT22;45266;48.756;9.246;2022-09-03T03:46:41;13.80;99.90
55648;DHT22;45266;48.756;9.246;2022-09-03T03:47:43;13.70;99.90
55648;DHT22;45266;48.756;9.246;2022-09-03T03:48:51;13.80;99.90
55648;DHT22;45266;48.756;9.246;2022-09-03T03:49:53;13.70;99.90
55648;DHT22;45266;48.756;9.246;2022-09-03T03:50:58;13.70;99.90
55648;DHT22;45266;48.756;9.246;2022-09-03T03:52:00;13.70;99.90
55648;DHT22;45266;48.756;9.246;2022-09-03T03:53:03;13.70;99.90
55648;DHT22;45266;48.756;9.246;2022-09-03T03:54:05;13.70;99.90
55648;DHT22;45266;48.756;9.246;2022-09-03T03:55:07;13.70;99.90
55648;DHT22;45266;48.756;9.246;2022-09-03T03:56:11;13.70;99.90
55648;DHT22;45266;48.756;9.246;2022-09-03T03:57:13;13.70;99.90
55648;DHT22;45266;48.756;9.246;2022-09-03T03:58:15;13.70;99.90
55648;DHT22;45266;48.756;9.246;2022-09-03T03:59:17;13.60;99.90
55648;DHT22;45266;48.756;9.246;2022-09-03T04:00:19;13.70;99.90
55648;DHT22;45266;48.756;9.246;2022-09-03T04:01:23;13.70;99.90
55648;DHT22;45266;48.756;9.246;2022-09-03T04:02:25;13.70;99.90
55648;DHT22;45266;48.756;9.246;2022-09-03T04:03:28;13.70;99.90
55648;DHT22;45266;48.756;9.246;2022-09-03T04:04:29;13.70;99.90
55648;DHT22;45266;48.756;9.246;2022-09-03T04:05:31;13.70;99.90
55648;DHT22;45266;48.756;9.246;2022-09-03T04:06:35;13.70;99.90
55648;DHT22;45266;48.756;9.246;2022-09-03T04:07:36;13.70;99.90
55648;DHT22;45266;48.756;9.246;2022-09-03T04:08:40;13.70;99.90
55648;DHT22;45266;48.756;9.246;2022-09-03T04:09:42;13.70;99.90
55648;DHT22;45266;48.756;9.246;2022-09-03T04:10:43;13.70;99.90
55648;DHT22;45266;48.756;9.246;2022-09-03T04:11:45;13.80;99.90
55648;DHT22;45266;48.756;9.246;2022-09-03T04:12:47;13.80;99.90
55648;DHT22;45266;48.756;9.246;2022-09-03T04:13:49;13.80;99.90
55648;DHT22;45266;48.756;9.246;2022-09-03T04:14:51;13.80;99.90
55648;DHT22;45266;48.756;9.246;2022-09-03T04:16:02;13.80;99.90
55648;DHT22;45266;48.756;9.246;2022-09-03T04:17:04;13.80;99.90
55648;DHT22;45266;48.756;9.246;2022-09-03T04:18:06;13.80;99.90
55648;DHT22;45266;48.756;9.246;2022-09-03T04:19:08;13.80;99.90
55648;DHT22;45266;48.756;9.246;2022-09-03T04:20:10;13.80;99.90
55648;DHT22;45266;48.756;9.246;2022-09-03T04:21:17;13.80;99.90
55648;DHT22;45266;48.756;9.246;2022-09-03T04:22:19;13.80;99.90
55648;DHT22;45266;48.756;9.246;2022-09-03T04:23:21;13.80;99.90
55648;DHT22;45266;48.756;9.246;2022-09-03T04:24:23;13.80;99.90
55648;DHT22;45266;48.756;9.246;2022-09-03T04:25:25;13.80;99.90
55648;DHT22;45266;48.756;9.246;2022-09-03T04:26:29;13.80;99.90
55648;DHT22;45266;48.756;9.246;2022-09-03T04:27:34;13.80;99.90
55648;DHT22;45266;48.756;9.246;2022-09-03T04:28:36;13.80;99.90
55648;DHT22;45266;48.756;9.246;2022-09-03T04:29:38;13.80;99.90
55648;DHT22;45266;48.756;9.246;2022-09-03T04:30:40;13.80;99.90
55648;DHT22;45266;48.756;9.246;2022-09-03T04:31:45;13.80;99.90
55648;DHT22;45266;48.756;9.246;2022-09-03T04:33:07;13.70;99.90
55648;DHT22;45266;48.756;9.246;2022-09-03T04:34:16;13.70;99.90
55648;DHT22;45266;48.756;9.246;2022-09-03T04:35:19;13.70;99.90
55648;DHT22;45266;48.756;9.246;2022-09-03T04:36:24;13.70;99.90
55648;DHT22;45266;48.756;9.246;2022-09-03T04:37:26;13.70;99.90
55648;DHT22;45266;48.756;9.246;2022-09-03T04:38:28;13.60;99.90
55648;DHT22;45266;48.756;9.246;2022-09-03T04:39:31;13.70;99.90
55648;DHT22;45266;48.756;9.246;2022-09-03T04:40:33;13.70;99.90
55648;DHT22;45266;48.756;9.246;2022-09-03T04:41:35;13.60;99.90
55648;DHT22;45266;48.756;9.246;2022-09-03T04:42:38;13.60;99.90
55648;DHT22;45266;48.756;9.246;2022-09-03T04:43:41;13.60;99.90
55648;DHT22;45266;48.756;9.246;2022-09-03T04:44:44;13.60;99.90
55648;DHT22;45266;48.756;9.246;2022-09-03T04:45:46;13.60;99.90
55648;DHT22;45266;48.756;9.246;2022-09-03T04:46:47;13.60;99.90
55648;DHT22;45266;48.756;9.246;2022-09-03T04:48:03;13.60;99.90
55648;DHT22;45266;48.756;9.246;2022-09-03T04:49:05;13.60;99.90
55648;DHT22;45266;48.756;9.246;2022-09-03T04:50:09;13.60;99.90
55648;DHT22;45266;48.756;9.246;2022-09-03T04:51:15;13.60;99.90
55648;DHT22;45266;48.756;9.246;2022-09-03T04:52:17;13.60;99.90
55648;DHT22;45266;48.756;9.246;2022-09-03T04:53:20;13.60;99.90
55648;DHT22;45266;48.756;9.246;2022-09-03T04:54:23;13.60;99.90
55648;DHT22;45266;48.756;9.246;2022-09-03T04:55:36;13.60;99.90
55648;DHT22;45266;48.756;9.246;2022-09-03T04:56:38;13.60;99.90
55648;DHT22;45266;48.756;9.246;2022-09-03T04:57:41;13.60;99.90
55648;DHT22;45266;48.756;9.246;2022-09-03T04:58:44;13.60;99.90
55648;DHT22;45266;48.756;9.246;2022-09-03T04:59:49;13.60;99.90
55648;DHT22;45266;48.756;9.246;2022-09-03T05:00:51;13.60;99.90
55648;DHT22;45266;48.756;9.246;2022-09-03T05:01:53;13.60;99.90
55648;DHT22;45266;48.756;9.246;2022-09-03T05:02:59;13.60;99.90
55648;DHT22;45266;48.756;9.246;2022-09-03T05:04:02;13.60;99.90
55648;DHT22;45266;48.756;9.246;2022-09-03T05:05:06;13.60;99.90
55648;DHT22;45266;48.756;9.246;2022-09-03T05:06:08;13.60;99.90
55648;DHT22;45266;48.756;9.246;2022-09-03T05:07:11;13.60;99.90
55648;DHT22;45266;48.756;9.246;2022-09-03T05:08:13;13.60;99.90
55648;DHT22;45266;48.756;9.246;2022-09-03T05:09:14;13.60;99.90
55648;DHT22;45266;48.756;9.246;2022-09-03T05:10:16;13.70;99.90
55648;DHT22;45266;48.756;9.246;2022-09-03T05:11:22;13.70;99.90
55648;DHT22;45266;48.756;9.246;2022-09-03T05:12:24;13.70;99.90
55648;DHT22;45266;48.756;9.246;2022-09-03T05:13:26;13.70;99.90
55648;DHT22;45266;48.756;9.246;2022-09-03T05:14:29;13.60;99.90
55648;DHT22;45266;48.756;9.246;2022-09-03T05:15:31;13.70;99.90
55648;DHT22;45266;48.756;9.246;2022-09-03T05:16:37;13.70;99.90
55648;DHT22;45266;48.756;9.246;2022-09-03T05:17:39;13.70;99.90
55648;DHT22;45266;48.756;9.246;2022-09-03T05:18:41;13.70;99.90
55648;DHT22;45266;48.756;9.246;2022-09-03T05:19:43;13.70;99.90
55648;DHT22;45266;48.756;9.246;2022-09-03T05:20:45;13.70;99.90
55648;DHT22;45266;48.756;9.246;2022-09-03T05:21:47;13.70;99.90
55648;DHT22;45266;48.756;9.246;2022-09-03T05:22:48;13.70;99.90
55648;DHT22;45266;48.756;9.246;2022-09-03T05:23:51;13.80;99.90
55648;DHT22;45266;48.756;9.246;2022-09-03T05:24:53;13.80;99.90
55648;DHT22;45266;48.756;9.246;2022-09-03T05:25:58;13.80;99.90
55648;DHT22;45266;48.756;9.246;2022-09-03T05:26:59;13.80;99.90
55648;DHT22;45266;48.756;9.246;2022-09-03T05:28:03;13.80;99.90
55648;DHT22;45266;48.756;9.246;2022-09-03T05:29:06;13.80;99.90
55648;DHT22;45266;48.756;9.246;2022-09-03T05:30:09;13.80;99.90
55648;DHT22;45266;48.756;9.246;2022-09-03T05:31:16;13.90;99.90
55648;DHT22;45266;48.756;9.246;2022-09-03T05:32:18;13.90;99.90
55648;DHT22;45266;48.756;9.246;2022-09-03T05:33:20;13.90;99.90
55648;DHT22;45266;48.756;9.246;2022-09-03T05:34:24;13.90;99.90
55648;DHT22;45266;48.756;9.246;2022-09-03T05:35:26;13.90;99.90
55648;DHT22;45266;48.756;9.246;2022-09-03T05:36:35;14.00;99.90
55648;DHT22;45266;48.756;9.246;2022-09-03T05:37:37;14.10;99.90
55648;DHT22;45266;48.756;9.246;2022-09-03T05:38:39;14.10;99.90
55648;DHT22;45266;48.756;9.246;2022-09-03T05:39:41;14.10;99.90
55648;DHT22;45266;48.756;9.246;2022-09-03T05:40:43;14.20;99.90
55648;DHT22;45266;48.756;9.246;2022-09-03T05:41:45;14.20;99.90
55648;DHT22;45266;48.756;9.246;2022-09-03T05:42:46;14.20;99.90
55648;DHT22;45266;48.756;9.246;2022-09-03T05:43:50;14.30;99.90
55648;DHT22;45266;48.756;9.246;2022-09-03T05:45:00;14.30;99.90
55648;DHT22;45266;48.756;9.246;2022-09-03T05:46:04;14.30;99.90
55648;DHT22;45266;48.756;9.246;2022-09-03T05:47:07;14.30;99.90
55648;DHT22;45266;48.756;9.246;2022-09-03T05:48:08;14.30;99.90
55648;DHT22;45266;48.756;9.246;2022-09-03T05:49:10;14.40;99.90
55648;DHT22;45266;48.756;9.246;2022-09-03T05:50:12;14.40;99.90
55648;DHT22;45266;48.756;9.246;2022-09-03T05:51:16;14.40;99.90
55648;DHT22;45266;48.756;9.246;2022-09-03T05:52:18;14.40;99.90
55648;DHT22;45266;48.756;9.246;2022-09-03T05:53:22;14.40;99.90
55648;DHT22;45266;48.756;9.246;2022-09-03T05:54:24;14.40;99.90
55648;DHT22;45266;48.756;9.246;2022-09-03T05:55:26;14.50;99.90
55648;DHT22;45266;48.756;9.246;2022-09-03T05:56:30;14.50;99.90
55648;DHT22;45266;48.756;9.246;2022-09-03T05:57:32;14.50;99.90
55648;DHT22;45266;48.756;9.246;2022-09-03T05:58:37;14.50;99.90
55648;DHT22;45266;48.756;9.246;2022-09-03T05:59:40;14.50;99.90
55648;DHT22;45266;48.756;9.246;2022-09-03T06:00:41;14.50;99.90
55648;DHT22;45266;48.756;9.246;2022-09-03T06:01:44;14.60;99.90
55648;DHT22;45266;48.756;9.246;2022-09-03T06:02:53;14.60;99.90
55648;DHT22;45266;48.756;9.246;2022-09-03T06:03:57;14.60;99.90
55648;DHT22;45266;48.756;9.246;2022-09-03T06:04:59;14.70;99.90
55648;DHT22;45266;48.756;9.246;2022-09-03T06:06:01;14.70;99.90
55648;DHT22;45266;48.756;9.246;2022-09-03T06:07:03;14.70;99.90
55648;DHT22;45266;48.756;9.246;2022-09-03T06:08:05;14.80;99.90
55648;DHT22;45266;48.756;9.246;2022-09-03T06:09:18;14.80;99.90
55648;DHT22;45266;48.756;9.246;2022-09-03T06:10:20;14.80;99.90
55648;DHT22;45266;48.756;9.246;2022-09-03T06:11:29;14.80;99.90
55648;DHT22;45266;48.756;9.246;2022-09-03T06:12:31;14.90;99.90
55648;DHT22;45266;48.756;9.246;2022-09-03T06:13:34;14.90;99.90
55648;DHT22;45266;48.756;9.246;2022-09-03T06:14:36;14.90;99.90
55648;DHT22;45266;48.756;9.246;2022-09-03T06:15:38;14.90;99.90
55648;DHT22;45266;48.756;9.246;2022-09-03T06:16:41;15.00;99.90
55648;DHT22;45266;48.756;9.246;2022-09-03T06:17:44;15.00;99.90
55648;DHT22;45266;48.756;9.246;2022-09-03T06:18:45;15.00;99.90
55648;DHT22;45266;48.756;9.246;2022-09-03T06:19:47;15.00;99.90
55648;DHT22;45266;48.756;9.246;2022-09-03T06:21:05;15.00;99.90
55648;DHT22;45266;48.756;9.246;2022-09-03T06:22:07;15.10;99.90
55648;DHT22;45266;48.756;9.246;2022-09-03T06:23:08;15.10;99.90
55648;DHT22;45266;48.756;9.246;2022-09-03T06:24:18;15.10;99.90
55648;DHT22;45266;48.756;9.246;2022-09-03T06:25:22;15.10;99.90
55648;DHT22;45266;48.756;9.246;2022-09-03T06:26:24;15.10;99.90
55648;DHT22;45266;48.756;9.246;2022-09-03T06:27:28;15.10;99.90
55648;DHT22;45266;48.756;9.246;2022-09-03T06:28:31;15.10;99.90
55648;DHT22;45266;48.756;9.246;2022-09-03T06:29:35;15.20;99.90
55648;DHT22;45266;48.756;9.246;2022-09-03T06:30:37;15.20;99.90
55648;DHT22;45266;48.756;9.246;2022-09-03T06:31:39;15.20;99.90
55648;DHT22;45266;48.756;9.246;2022-09-03T06:32:48;15.20;99.90
55648;DHT22;45266;48.756;9.246;2022-09-03T06:33:51;15.30;99.90
55648;DHT22;45266;48.756;9.246;2022-09-03T06:34:55;15.30;99.90
55648;DHT22;45266;48.756;9.246;2022-09-03T06:35:59;15.30;99.90
55648;DHT22;45266;48.756;9.246;2022-09-03T06:37:02;15.30;99.90
55648;DHT22;45266;48.756;9.246;2022-09-03T06:38:04;15.30;99.90
55648;DHT22;45266;48.756;9.246;2022-09-03T06:39:06;15.30;99.90
55648;DHT22;45266;48.756;9.246;2022-09-03T06:40:09;15.40;99.90
55648;DHT22;45266;48.756;9.246;2022-09-03T06:41:17;15.40;99.90
55648;DHT22;45266;48.756;9.246;2022-09-03T06:42:25;15.40;99.90
55648;DHT22;45266;48.756;9.246;2022-09-03T06:43:28;15.50;99.90
55648;DHT22;45266;48.756;9.246;2022-09-03T06:44:30;15.50;99.90
55648;DHT22;45266;48.756;9.246;2022-09-03T06:45:32;15.50;99.90
55648;DHT22;45266;48.756;9.246;2022-09-03T06:46:35;15.50;99.90
55648;DHT22;45266;48.756;9.246;2022-09-03T06:47:39;15.50;99.90
55648;DHT22;45266;48.756;9.246;2022-09-03T06:48:41;15.60;99.90
55648;DHT22;45266;48.756;9.246;2022-09-03T06:49:46;15.60;99.90
55648;DHT22;45266;48.756;9.246;2022-09-03T06:51:01;15.60;99.90
55648;DHT22;45266;48.756;9.246;2022-09-03T06:52:03;15.70;99.90
55648;DHT22;45266;48.756;9.246;2022-09-03T06:53:05;15.70;99.90
55648;DHT22;45266;48.756;9.246;2022-09-03T06:54:08;15.70;99.90
55648;DHT22;45266;48.756;9.246;2022-09-03T06:55:11;15.70;99.90
55648;DHT22;45266;48.756;9.246;2022-09-03T06:56:16;15.80;99.90
55648;DHT22;45266;48.756;9.246;2022-09-03T06:57:18;15.80;99.90
55648;DHT22;45266;48.756;9.246;2022-09-03T06:58:20;15.80;99.90
55648;DHT22;45266;48.756;9.246;2022-09-03T06:59:23;15.90;99.90
55648;DHT22;45266;48.756;9.246;2022-09-03T07:00:25;15.90;99.90
55648;DHT22;45266;48.756;9.246;2022-09-03T07:01:29;15.90;99.90
55648;DHT22;45266;48.756;9.246;2022-09-03T07:02:34;15.90;99.90
55648;DHT22;45266;48.756;9.246;2022-09-03T07:03:37;16.00;99.90
55648;DHT22;45266;48.756;9.246;2022-09-03T07:04:40;15.90;99.90
55648;DHT22;45266;48.756;9.246;2022-09-03T07:05:45;16.00;99.90
55648;DHT22;45266;48.756;9.246;2022-09-03T07:06:47;16.10;99.90
55648;DHT22;45266;48.756;9.246;2022-09-03T07:07:49;16.10;99.90
55648;DHT22;45266;48.756;9.246;2022-09-03T07:08:51;16.20;99.90
55648;DHT22;45266;48.756;9.246;2022-09-03T07:09:53;16.20;99.90
55648;DHT22;45266;48.756;9.246;2022-09-03T07:10:54;16.20;99.90
55648;DHT22;45266;48.756;9.246;2022-09-03T07:11:56;16.30;99.90
55648;DHT22;45266;48.756;9.246;2022-09-03T07:12:58;16.30;99.90
55648;DHT22;45266;48.756;9.246;2022-09-03T07:14:00;16.30;99.90
55648;DHT22;45266;48.756;9.246;2022-09-03T07:15:02;16.40;99.90
55648;DHT22;45266;48.756;9.246;2022-09-03T07:16:08;16.40;99.90
55648;DHT22;45266;48.756;9.246;2022-09-03T07:17:10;16.50;99.90
55648;DHT22;45266;48.756;9.246;2022-09-03T07:18:11;16.60;99.90
55648;DHT22;45266;48.756;9.246;2022-09-03T07:19:14;16.60;99.90
55648;DHT22;45266;48.756;9.246;2022-09-03T07:20:16;16.70;99.90
55648;DHT22;45266;48.756;9.246;2022-09-03T07:21:19;16.70;99.90
55648;DHT22;45266;48.756;9.246;2022-09-03T07:22:21;16.80;99.90
55648;DHT22;45266;48.756;9.246;2022-09-03T07:23:32;16.80;99.90
55648;DHT22;45266;48.756;9.246;2022-09-03T07:24:34;16.90;99.90
55648;DHT22;45266;48.756;9.246;2022-09-03T07:25:38;16.90;99.90
55648;DHT22;45266;48.756;9.246;2022-09-03T07:26:41;17.00;99.90
55648;DHT22;45266;48.756;9.246;2022-09-03T07:27:49;17.00;99.90
55648;DHT22;45266;48.756;9.246;2022-09-03T07:28:51;17.00;99.90
55648;DHT22;45266;48.756;9.246;2022-09-03T07:29:54;17.10;99.90
55648;DHT22;45266;48.756;9.246;2022-09-03T07:31:44;17.20;99.90
55648;DHT22;45266;48.756;9.246;2022-09-03T07:32:26;17.20;99.90
55648;DHT22;45266;48.756;9.246;2022-09-03T07:33:29;17.30;99.90
55648;DHT22;45266;48.756;9.246;2022-09-03T07:34:34;17.30;99.90
55648;DHT22;45266;48.756;9.246;2022-09-03T07:35:37;17.30;99.90
55648;DHT22;45266;48.756;9.246;2022-09-03T07:36:41;17.40;99.90
55648;DHT22;45266;48.756;9.246;2022-09-03T07:37:44;17.50;99.90
55648;DHT22;45266;48.756;9.246;2022-09-03T07:38:45;17.50;99.90
55648;DHT22;45266;48.756;9.246;2022-09-03T07:39:48;17.60;99.90
55648;DHT22;45266;48.756;9.246;2022-09-03T07:40:57;17.70;99.90